Aeroporto :
LOGIN :

Iscrizione | Disclaimer

   EN    FR    IT 

 










Sommario :    VFR   VFR Marginale   IFR   IFR Intensivo   IFR Molto Intensivo
Visibilità : 
Base nubi : 
>= 8 km
>= 3000ft
5 / 8 km
1000 / 3000 ft
1500m / 5 km
500 / 1000 ft
800 / 1500m
200 / 500 ft
< 800m
< 200 ft
Simboli :   Temporali  Nebbia  Neve Forte  Precipitazioni Forti  Vento > 20 kt
SIGMETs :   Varie  Temporali  Ghiacco  Turbolenza  Onda orograficha  Ceneri Vulcaniche






- Altitudine del aeroporto : 1521 ft
- Codice IATA : NCY


LFLP - Annecy

ULTIMO METAR :
  • 181030Z AUTO VRB02KT 9999 FEW060 SCT180 BKN210 16/13 Q1016 TEMPO SCT050TCU

METARs OBSOLETI :
  • 181000Z AUTO VRB02KT 9999 FEW060 BKN150 16/13 Q1016 TEMPO 4000 -RA SCT050TCU
  • 180930Z AUTO 14005KT 110V190 9999 FEW068 BKN092 BKN150 15/13 Q1016 TEMPO 4000 -RA SCT050TCU
  • 180900Z AUTO 12005KT 070V170 9999 SCT064 OVC094 14/13 Q1016 TEMPO 4000 -RA SCT055TCU
  • 180830Z AUTO 11004KT 9999 -RA FEW029 BKN064 OVC090 13/13 Q1016 TEMPO 4000 -RA SCT055TCU
  • 180800Z AUTO VRB02KT 8000 BKN064/// ///TCU 12/12 Q1016 TEMPO 4000 -RA BKN013

TAF TAF LFLP
Valido dal 18 a 09 ore il 19 a 09 ore UTC


180800Z 1809/1909 VRB02KT 9999 BKN060
PROB40
TEMPO 1809/1811 4000 -RA SCT055TCU
TEMPO 1811/1817 18010KT SCT050TCU
TEMPO 1817/1822 22010KT 4000 -SHRA BKN035TCU
TEMPO 1904/1909 -SHRA SCT080TCU



MetMap, La meteo Aeronautica in un colpo d'occhio ! - Copyright ORBIFLY Dicembre 2007 - Disclaimer

ORBIFLY MET'MAP TEAM :

Programmazione e sviluppo : Alexandra Zaïnal
Concezione e sviluppo : Baudouin d'Aumeries
Co-Programmazione e sviluppo : Marc-Olivier Méhu
Supporto tecnico e logistico : Manuel Goepfert
Aiuto per la traduzione : Arnaldo La Scala

Contatto : metmap@orbifly.com




FONTI E CREDITI :

   NOAA